createdAt,value
2023-02-22T00:01:21.642Z,68.10
2023-02-22T00:04:21.472Z,68.40
2023-02-22T00:07:14.752Z,68.40
2023-02-22T00:10:07.204Z,68.00
2023-02-22T00:13:07.872Z,68.30
2023-02-22T00:16:17.056Z,68.30
2023-02-22T00:19:11.346Z,68.40
2023-02-22T00:22:23.527Z,68.60
2023-02-22T00:28:12.084Z,68.30
2023-02-22T00:30:53.184Z,68.30
2023-02-22T00:37:04.439Z,68.40
2023-02-22T00:39:32.928Z,68.40
2023-02-22T00:42:01.084Z,68.40
2023-02-22T00:45:29.246Z,68.60
2023-02-22T00:52:14.220Z,68.60
2023-02-22T00:55:07.622Z,68.80
2023-02-22T00:58:15.963Z,68.90
2023-02-22T01:01:26.935Z,68.60
2023-02-22T01:04:22.762Z,69.00
2023-02-22T01:07:18.087Z,69.10
2023-02-22T01:10:21.170Z,68.80
2023-02-22T01:13:26.817Z,69.30
2023-02-22T01:16:11.289Z,69.30
2023-02-22T01:18:57.585Z,69.50
2023-02-22T01:22:11.622Z,69.40
2023-02-22T01:28:38.648Z,69.60
2023-02-22T01:31:35.239Z,69.50
2023-02-22T01:34:31.220Z,69.40
2023-02-22T01:37:40.105Z,68.90
2023-02-22T01:43:52.399Z,69.30
2023-02-22T01:46:49.074Z,69.20
2023-02-22T01:49:53.820Z,69.30
2023-02-22T01:52:57.652Z,69.50
2023-02-22T01:55:42.293Z,69.60
2023-02-22T01:58:14.857Z,69.30
2023-02-22T02:00:44.832Z,69.30
2023-02-22T02:03:48.210Z,69.20
2023-02-22T02:06:19.865Z,69.00
2023-02-22T02:09:28.848Z,69.20
2023-02-22T02:12:21.127Z,69.60
2023-02-22T02:15:19.642Z,69.40
2023-02-22T02:18:27.625Z,69.20
2023-02-22T02:21:44.025Z,69.40
2023-02-22T02:25:20.572Z,69.10
2023-02-22T02:32:12.774Z,69.20
2023-02-22T02:35:16.852Z,69.10
2023-02-22T02:41:09.005Z,69.20
2023-02-22T02:43:50.905Z,69.40
2023-02-22T02:46:42.876Z,69.40
2023-02-22T02:49:36.992Z,69.40
2023-02-22T02:52:27.465Z,69.40
2023-02-22T02:58:06.116Z,69.40
2023-02-22T03:00:49.245Z,69.70
2023-02-22T03:04:09.592Z,69.60
2023-02-22T03:07:40.340Z,69.50
2023-02-22T03:10:55.433Z,69.40
2023-02-22T03:13:37.832Z,69.30
2023-02-22T03:16:19.415Z,69.30
2023-02-22T03:18:54.652Z,69.50
2023-02-22T03:21:30.406Z,69.40
2023-02-22T03:24:04.817Z,69.40
2023-02-22T03:26:42.103Z,69.40
2023-02-22T03:29:16.183Z,69.30
2023-02-22T03:31:49.750Z,69.40
2023-02-22T03:34:36.829Z,69.30
2023-02-22T03:37:14.495Z,69.60
2023-02-22T03:40:05.049Z,69.70
2023-02-22T03:43:25.070Z,69.80
2023-02-22T03:46:12.765Z,69.70
2023-02-22T03:49:17.888Z,69.60
2023-02-22T03:52:28.564Z,69.90
2023-02-22T03:55:35.500Z,70.10
2023-02-22T03:58:32.905Z,69.80
2023-02-22T04:01:24.195Z,69.50
2023-02-22T04:11:13.749Z,70.10
2023-02-22T04:14:23.993Z,70.00
2023-02-22T04:17:26.674Z,70.50
2023-02-22T04:20:18.596Z,70.20
2023-02-22T04:23:14.551Z,70.80
2023-02-22T04:25:54.623Z,70.50
2023-02-22T04:31:47.219Z,70.60
2023-02-22T04:34:39.202Z,70.90
2023-02-22T04:37:48.382Z,71.10
2023-02-22T04:44:20.585Z,70.80
2023-02-22T04:50:37.776Z,71.20
2023-02-22T04:53:43.911Z,71.10
2023-02-22T05:00:00.411Z,71.70
2023-02-22T05:06:03.753Z,71.10
2023-02-22T05:09:04.416Z,71.40
2023-02-22T05:12:09.761Z,71.50
2023-02-22T05:15:09.310Z,71.50
2023-02-22T05:18:40.586Z,72.10
2023-02-22T05:21:38.232Z,71.70
2023-02-22T05:24:15.519Z,71.80
2023-02-22T05:27:32.117Z,72.20
2023-02-22T05:30:38.162Z,72.00
2023-02-22T05:33:39.361Z,71.90
2023-02-22T05:36:08.841Z,71.90
2023-02-22T05:38:43.441Z,71.90
2023-02-22T05:41:14.999Z,72.00
2023-02-22T05:44:03.346Z,72.00
2023-02-22T05:47:07.179Z,72.10
2023-02-22T05:50:27.800Z,72.20
2023-02-22T05:53:11.482Z,71.90
2023-02-22T05:56:16.041Z,72.50
2023-02-22T05:59:05.807Z,72.20
2023-02-22T06:01:57.524Z,72.20
2023-02-22T06:04:52.216Z,72.30
2023-02-22T06:08:07.911Z,72.60
2023-02-22T06:17:20.737Z,72.30
2023-02-22T06:20:24.983Z,72.80
2023-02-22T06:26:46.356Z,72.30
2023-02-22T06:32:35.961Z,72.70
2023-02-22T06:35:30.483Z,72.90
2023-02-22T06:38:19.580Z,72.50
2023-02-22T06:41:28.647Z,72.80
2023-02-22T06:44:24.694Z,72.70
2023-02-22T06:47:18.626Z,72.70
2023-02-22T06:49:54.379Z,72.80
2023-02-22T06:52:52.171Z,72.70
2023-02-22T06:56:38.723Z,73.00
2023-02-22T07:07:20.458Z,72.50
2023-02-22T07:09:48.716Z,72.70
2023-02-22T07:17:03.089Z,73.10
2023-02-22T07:35:29.121Z,72.90
2023-02-22T07:44:57.740Z,72.70
2023-02-22T07:59:31.948Z,72.50
2023-02-22T08:10:28.983Z,72.10
2023-02-22T08:13:23.273Z,72.60
2023-02-22T08:15:59.697Z,72.00
2023-02-22T08:18:57.650Z,72.10
2023-02-22T08:21:56.048Z,72.30
2023-02-22T08:24:51.249Z,71.90
2023-02-22T08:27:35.199Z,71.90
2023-02-22T08:30:46.589Z,71.80
2023-02-22T08:33:52.014Z,71.50
2023-02-22T08:36:41.745Z,71.80
2023-02-22T08:42:47.131Z,71.50
2023-02-22T08:45:41.337Z,71.60
2023-02-22T08:49:35.384Z,71.70
2023-02-22T08:52:30.709Z,71.20
2023-02-22T08:55:07.886Z,71.40
2023-02-22T09:02:28.226Z,70.60
2023-02-22T09:06:14.715Z,70.40
2023-02-22T09:12:52.345Z,70.70
2023-02-22T09:16:25.231Z,70.30
2023-02-22T09:19:23.667Z,70.00
2023-02-22T09:22:21.484Z,70.20
2023-02-22T09:25:35.259Z,70.00
2023-02-22T09:31:47.890Z,69.60
2023-02-22T09:35:26.794Z,69.30
2023-02-22T09:41:54.613Z,69.20
2023-02-22T09:45:44.974Z,68.90
2023-02-22T09:54:43.574Z,68.40
2023-02-22T09:57:49.164Z,67.90
2023-02-22T10:00:34.818Z,67.60
2023-02-22T10:03:21.858Z,68.70
2023-02-22T10:06:45.292Z,67.80
2023-02-22T10:10:04.686Z,67.60
2023-02-22T10:16:29.625Z,67.40
2023-02-22T10:20:09.841Z,67.50
2023-02-22T10:23:40.819Z,66.90
2023-02-22T10:30:52.669Z,66.70
2023-02-22T10:34:47.883Z,65.90
2023-02-22T10:41:44.198Z,66.10
2023-02-22T11:07:02.434Z,64.60
2023-02-22T11:10:16.887Z,64.30
2023-02-22T11:17:59.934Z,63.80
2023-02-22T11:21:00.627Z,63.80
2023-02-22T11:28:19.941Z,63.00
2023-02-22T11:42:12.617Z,63.00
2023-02-22T11:46:06.578Z,62.30
2023-02-22T12:08:58.747Z,61.30
2023-02-22T12:20:56.854Z,60.10
2023-02-22T12:24:23.609Z,60.10
2023-02-22T12:27:50.074Z,60.00
2023-02-22T12:30:52.978Z,59.70
2023-02-22T12:33:50.504Z,59.70
2023-02-22T12:36:55.407Z,59.90
2023-02-22T12:44:37.252Z,59.60
2023-02-22T12:48:14.322Z,59.20
2023-02-22T12:51:11.487Z,59.20
2023-02-22T12:57:23.642Z,59.50
2023-02-22T13:00:27.222Z,59.50
2023-02-22T13:04:21.470Z,59.80
2023-02-22T13:08:02.395Z,59.30
2023-02-22T13:11:25.784Z,59.40
2023-02-22T13:14:29.041Z,59.20
2023-02-22T13:17:16.435Z,59.00
2023-02-22T13:20:16.785Z,59.00
2023-02-22T13:23:21.588Z,58.90
2023-02-22T13:26:06.951Z,58.60
2023-02-22T13:28:57.496Z,58.80
2023-02-22T13:32:15.830Z,59.10
2023-02-22T13:35:34.930Z,58.70
2023-02-22T13:42:15.652Z,59.00
2023-02-22T13:45:37.061Z,58.80
2023-02-22T13:48:53.104Z,58.60
2023-02-22T13:52:00.058Z,58.60
2023-02-22T13:54:49.547Z,58.70
2023-02-22T13:57:48.191Z,58.80
2023-02-22T14:01:03.268Z,58.70
2023-02-22T14:04:01.210Z,58.40
2023-02-22T14:10:29.934Z,58.60
2023-02-22T14:13:19.807Z,58.80
2023-02-22T14:20:40.332Z,59.30
2023-02-22T14:24:03.132Z,58.90
2023-02-22T14:26:55.010Z,58.90
2023-02-22T14:29:49.292Z,59.00
2023-02-22T14:32:55.946Z,59.30
2023-02-22T14:36:07.358Z,59.10
2023-02-22T14:41:50.349Z,58.90
2023-02-22T14:44:52.555Z,59.00
2023-02-22T14:48:01.404Z,59.00
2023-02-22T14:50:55.436Z,59.20
2023-02-22T14:54:03.597Z,59.20
2023-02-22T14:57:30.093Z,59.70
2023-02-22T15:00:33.995Z,59.30
2023-02-22T15:06:16.815Z,59.60
2023-02-22T15:12:50.992Z,60.20
2023-02-22T15:16:08.362Z,61.30
2023-02-22T15:24:53.322Z,61.50
2023-02-22T15:28:12.106Z,61.80
2023-02-22T15:31:57.010Z,62.10
2023-02-22T15:35:27.256Z,62.50
2023-02-22T15:38:31.582Z,62.80
2023-02-22T15:44:29.810Z,63.10
2023-02-22T15:47:48.926Z,63.40
2023-02-22T15:51:07.549Z,63.60
2023-02-22T15:57:59.588Z,63.70
2023-02-22T16:01:13.120Z,64.20
2023-02-22T16:04:28.209Z,64.20
2023-02-22T16:07:37.156Z,64.10
2023-02-22T16:10:28.431Z,64.20
2023-02-22T16:13:40.772Z,64.40
2023-02-22T16:17:02.149Z,64.70
2023-02-22T16:19:51.085Z,64.80
2023-02-22T16:23:16.739Z,65.20
2023-02-22T16:26:52.561Z,65.60
2023-02-22T16:29:48.452Z,65.70
2023-02-22T16:32:41.125Z,65.60
2023-02-22T16:35:31.350Z,65.80
2023-02-22T16:38:19.100Z,65.70
2023-02-22T16:41:00.133Z,66.20
2023-02-22T16:44:07.543Z,66.90
2023-02-22T16:50:51.369Z,67.20
2023-02-22T16:57:20.001Z,67.20
2023-02-22T17:00:08.404Z,67.30
2023-02-22T17:03:52.786Z,67.50
2023-02-22T17:06:47.918Z,68.00
2023-02-22T17:09:53.068Z,68.00
2023-02-22T17:12:38.241Z,68.50
2023-02-22T17:15:48.697Z,68.40
2023-02-22T17:18:37.360Z,68.40
2023-02-22T17:21:26.087Z,68.30
2023-02-22T17:24:39.814Z,68.60
2023-02-22T17:31:22.506Z,68.80
2023-02-22T17:34:28.969Z,69.10
2023-02-22T17:37:21.773Z,69.20
2023-02-22T17:40:28.618Z,69.50
2023-02-22T17:43:29.568Z,69.40
2023-02-22T17:46:45.042Z,69.40
2023-02-22T17:49:38.886Z,69.40
2023-02-22T17:52:46.091Z,69.30
2023-02-22T17:55:46.201Z,69.60
2023-02-22T17:58:23.457Z,69.70
2023-02-22T18:01:35.461Z,69.10
2023-02-22T18:04:44.341Z,69.60
2023-02-22T18:08:05.756Z,69.60
2023-02-22T18:11:03.666Z,69.40
2023-02-22T18:17:09.682Z,69.90
2023-02-22T18:20:05.756Z,69.70
2023-02-22T18:22:51.775Z,69.80
2023-02-22T18:25:22.782Z,70.10
2023-02-22T18:27:51.200Z,69.60
2023-02-22T18:30:32.026Z,69.80
2023-02-22T18:41:00.833Z,69.60
2023-02-22T18:44:10.676Z,69.70
2023-02-22T18:50:38.748Z,69.60
2023-02-22T18:53:09.072Z,69.40
2023-02-22T18:55:44.788Z,69.90
2023-02-22T18:58:21.038Z,69.80
2023-02-22T19:00:56.008Z,70.00
2023-02-22T19:03:33.561Z,69.80
2023-02-22T19:06:11.816Z,70.20
2023-02-22T19:09:02.283Z,70.10
2023-02-22T19:15:26.593Z,70.30
2023-02-22T19:17:55.484Z,70.20
2023-02-22T19:32:30.267Z,70.40
2023-02-22T19:36:10.963Z,70.20
2023-02-22T19:41:42.679Z,70.00
2023-02-22T19:44:13.919Z,70.20
2023-02-22T19:46:58.985Z,70.30
2023-02-22T19:49:54.930Z,70.50
2023-02-22T19:56:36.196Z,70.30
2023-02-22T19:59:29.794Z,70.40
2023-02-22T20:01:58.566Z,70.40
2023-02-22T21:16:53.981Z,71.40
2023-02-22T21:27:51.658Z,71.30
2023-02-22T21:34:12.146Z,71.30
2023-02-22T21:40:57.295Z,71.80
2023-02-22T21:43:48.590Z,71.40
2023-02-22T21:46:24.675Z,71.50
2023-02-22T21:49:00.174Z,71.50
2023-02-22T21:54:45.154Z,71.20
2023-02-22T21:57:14.845Z,71.70
2023-02-22T22:00:37.766Z,71.60
2023-02-22T22:13:49.281Z,71.60
2023-02-22T22:17:01.937Z,71.40
2023-02-22T22:19:39.590Z,71.40
2023-02-22T22:22:36.539Z,71.50
2023-02-22T22:25:07.528Z,71.80
2023-02-22T22:27:35.700Z,71.70
2023-02-22T22:30:08.511Z,71.70
2023-02-22T22:32:56.500Z,71.60
2023-02-22T22:35:25.225Z,71.90
2023-02-22T22:37:53.733Z,72.00
2023-02-22T22:40:40.931Z,71.80
2023-02-22T22:43:09.535Z,71.70
2023-02-22T22:45:39.106Z,71.80
2023-02-22T22:48:14.659Z,71.90
2023-02-22T22:50:45.588Z,71.70
2023-02-22T22:53:14.342Z,71.80
2023-02-22T22:55:43.042Z,71.80
2023-02-22T22:58:12.671Z,71.60
2023-02-22T23:00:41.962Z,71.70
2023-02-22T23:03:18.077Z,71.80
2023-02-22T23:05:48.516Z,71.70
2023-02-22T23:08:16.740Z,71.60
2023-02-22T23:10:45.807Z,71.90
2023-02-22T23:13:15.698Z,71.70
2023-02-22T23:15:47.725Z,71.70
2023-02-22T23:18:20.420Z,71.60
2023-02-22T23:20:55.173Z,71.80
2023-02-22T23:23:27.636Z,71.60
2023-02-22T23:26:11.742Z,71.70
2023-02-22T23:28:41.291Z,71.60
2023-02-22T23:31:13.914Z,71.80
2023-02-22T23:33:43.997Z,72.30
2023-02-22T23:36:13.713Z,71.50
2023-02-22T23:38:42.438Z,71.60
2023-02-22T23:41:13.343Z,71.50
2023-02-22T23:43:42.127Z,71.40
2023-02-22T23:46:18.502Z,71.40
2023-02-22T23:48:52.141Z,71.40
2023-02-22T23:51:25.259Z,71.40
2023-02-22T23:53:55.664Z,71.20
2023-02-22T23:56:26.730Z,71.20
2023-02-22T23:59:21.032Z,71.20
